Time;durP1;ratioP1;P1;durP2;ratioP2;P2;SDS_P1;SDS_P2;PMS_P1;PMS_P2;Temp;Humidity;BMP_temperature;BMP_pressure;BME280_temperature;BME280_humidity;BME280_pressure;Samples;Min_cycle;Max_cycle;Signal;HPM_P1;HPM_P2
2022/03/16 00:00:21;;;;;;;10.73;7.13;;;10.30;99.90;;;;;;5096215;28;20484;-59
2022/03/16 00:02:49;;;;;;;14.93;7.43;;;10.30;99.90;;;;;;5096330;28;20430;-58
2022/03/16 00:05:23;;;;;;;15.50;8.60;;;10.20;99.90;;;;;;5096840;28;20430;-58
2022/03/16 00:07:50;;;;;;;16.60;9.43;;;10.20;99.90;;;;;;5097097;28;20434;-61
2022/03/16 00:10:16;;;;;;;23.90;8.40;;;10.20;99.90;;;;;;5096844;28;20442;-56
2022/03/16 00:12:50;;;;;;;17.13;8.73;;;10.10;99.90;;;;;;5096771;28;20488;-56
2022/03/16 00:15:18;;;;;;;15.20;8.73;;;10.10;99.90;;;;;;5096801;28;20488;-58
2022/03/16 00:17:45;;;;;;;16.27;8.73;;;10.10;99.90;;;;;;5096465;28;20480;-57
2022/03/16 00:20:12;;;;;;;14.73;8.40;;;10.10;99.90;;;;;;5096721;28;20514;-56
2022/03/16 00:22:39;;;;;;;16.17;8.10;;;10.10;99.90;;;;;;5096717;28;20427;-58
2022/03/16 00:25:07;;;;;;;20.60;9.50;;;10.00;99.90;;;;;;5096711;28;20485;-58
2022/03/16 00:27:34;;;;;;;22.83;9.40;;;10.00;99.90;;;;;;5096330;28;20511;-56
2022/03/16 00:30:01;;;;;;;17.20;9.30;;;10.00;99.90;;;;;;5096540;28;20448;-57
2022/03/16 00:32:29;;;;;;;11.83;7.93;;;10.00;99.90;;;;;;5096176;28;20457;-57
2022/03/16 00:34:57;;;;;;;18.90;8.30;;;10.00;99.90;;;;;;5096641;28;20426;-58
2022/03/16 00:37:24;;;;;;;17.67;9.10;;;9.90;99.90;;;;;;5096403;28;20478;-57
2022/03/16 00:39:53;;;;;;;15.50;8.50;;;9.90;99.90;;;;;;5096809;28;20422;-55
2022/03/16 00:42:23;;;;;;;14.67;8.00;;;10.00;99.90;;;;;;5096699;28;20806;-58
2022/03/16 00:44:52;;;;;;;18.43;8.40;;;9.90;99.90;;;;;;5096045;28;20419;-60
2022/03/16 00:47:18;;;;;;;19.10;8.27;;;9.90;99.90;;;;;;5096426;28;20430;-58
2022/03/16 00:49:47;;;;;;;17.63;8.17;;;9.80;99.90;;;;;;5096126;28;20541;-57
2022/03/16 00:52:13;;;;;;;15.87;8.30;;;9.80;99.90;;;;;;5095548;28;20447;-55
2022/03/16 00:54:40;;;;;;;12.47;7.73;;;9.80;99.90;;;;;;5095586;28;20470;-55
2022/03/16 00:57:07;;;;;;;16.40;9.03;;;9.80;99.90;;;;;;5095203;28;20466;-57
2022/03/16 00:59:33;;;;;;;15.90;9.10;;;9.70;99.90;;;;;;5095263;28;20434;-55
2022/03/16 01:02:00;;;;;;;22.83;9.80;;;9.70;99.90;;;;;;5095637;28;20469;-57
2022/03/16 01:04:27;;;;;;;17.90;9.10;;;9.70;99.90;;;;;;5095149;28;20837;-52
2022/03/16 01:06:55;;;;;;;20.93;9.40;;;9.70;99.90;;;;;;5095349;28;20489;-53
2022/03/16 01:09:22;;;;;;;15.53;9.30;;;9.60;99.90;;;;;;5095607;28;20457;-56
2022/03/16 01:11:49;;;;;;;18.53;8.87;;;9.60;99.90;;;;;;5095394;28;20430;-56
2022/03/16 01:14:19;;;;;;;23.40;9.73;;;9.60;99.90;;;;;;5095138;28;20468;-56
2022/03/16 01:16:46;;;;;;;18.27;9.53;;;9.40;99.90;;;;;;5095348;28;20509;-56
2022/03/16 01:19:14;;;;;;;19.90;9.70;;;9.40;99.90;;;;;;5095618;28;20458;-60
2022/03/16 01:21:41;;;;;;;21.20;9.43;;;9.40;99.90;;;;;;5095231;28;20467;-54
2022/03/16 01:24:12;;;;;;;18.73;8.83;;;9.40;99.90;;;;;;5095240;28;20488;-55
2022/03/16 01:26:38;;;;;;;18.97;10.13;;;9.30;99.90;;;;;;5095880;28;20451;-53
2022/03/16 01:29:05;;;;;;;17.70;10.23;;;9.30;99.90;;;;;;5095798;28;20469;-55
2022/03/16 01:31:32;;;;;;;16.80;9.83;;;9.20;99.90;;;;;;5094644;28;20468;-54
2022/03/16 01:33:59;;;;;;;27.43;9.93;;;9.20;99.90;;;;;;5095374;28;20438;-57
2022/03/16 01:36:25;;;;;;;19.60;10.27;;;9.20;99.90;;;;;;5095148;28;21016;-56
2022/03/16 01:38:52;;;;;;;25.83;10.33;;;9.10;99.90;;;;;;5094890;28;20461;-56
2022/03/16 01:41:20;;;;;;;18.10;10.50;;;9.10;99.90;;;;;;5094930;28;20430;-53
2022/03/16 01:43:47;;;;;;;17.27;9.87;;;9.10;99.90;;;;;;5095358;28;20462;-57
2022/03/16 01:46:13;;;;;;;17.83;10.43;;;9.10;99.90;;;;;;5095041;28;20461;-59
2022/03/16 01:48:40;;;;;;;17.23;9.13;;;9.10;99.90;;;;;;5095355;28;20959;-57
2022/03/16 01:51:07;;;;;;;19.27;9.47;;;9.00;99.90;;;;;;5095024;28;20430;-58
2022/03/16 01:53:34;;;;;;;17.70;8.20;;;9.00;99.90;;;;;;5095088;28;20443;-55
2022/03/16 01:56:00;;;;;;;14.20;7.60;;;9.00;99.90;;;;;;5095438;28;20478;-56
2022/03/16 01:58:28;;;;;;;21.63;10.20;;;9.00;99.90;;;;;;5095541;28;20430;-60
2022/03/16 02:00:55;;;;;;;26.60;9.60;;;8.90;99.90;;;;;;5095143;28;20446;-56
2022/03/16 02:03:22;;;;;;;17.77;10.40;;;8.90;99.90;;;;;;5095915;28;20439;-57
2022/03/16 02:05:49;;;;;;;19.27;10.23;;;8.80;99.90;;;;;;5095764;28;20439;-60
2022/03/16 02:08:15;;;;;;;19.63;9.47;;;8.80;99.90;;;;;;5098590;28;20470;-62
2022/03/16 02:10:42;;;;;;;20.73;12.33;;;8.70;99.90;;;;;;5099566;28;20438;-56
2022/03/16 02:13:12;;;;;;;20.63;11.40;;;8.70;99.90;;;;;;5099920;28;20454;-59
2022/03/16 02:15:40;;;;;;;19.63;8.97;;;8.80;99.90;;;;;;5099133;28;20443;-56
2022/03/16 02:18:08;;;;;;;19.60;10.20;;;8.70;99.90;;;;;;5099107;28;20518;-55
2022/03/16 02:20:35;;;;;;;15.87;9.60;;;8.70;99.90;;;;;;5098530;28;20469;-59
2022/03/16 02:23:05;;;;;;;20.80;10.60;;;8.70;99.90;;;;;;5098766;28;20437;-57
2022/03/16 02:25:32;;;;;;;23.90;10.73;;;8.60;99.90;;;;;;5098085;28;20457;-58
2022/03/16 02:28:00;;;;;;;16.97;9.07;;;8.60;99.90;;;;;;5098912;28;20449;-49
2022/03/16 02:30:30;;;;;;;20.53;9.80;;;8.60;99.90;;;;;;5098436;28;20472;-53
2022/03/16 02:32:57;;;;;;;22.83;10.83;;;8.60;99.90;;;;;;5098205;28;20484;-58
2022/03/16 02:35:24;;;;;;;16.17;9.47;;;8.60;99.90;;;;;;5097860;28;20442;-53
2022/03/16 02:37:51;;;;;;;17.07;10.00;;;8.60;99.90;;;;;;5098220;28;20477;-62
2022/03/16 02:40:20;;;;;;;28.73;11.47;;;8.50;99.90;;;;;;5098504;28;20430;-55
2022/03/16 02:42:47;;;;;;;20.10;9.50;;;8.50;99.90;;;;;;5098704;28;20470;-56
2022/03/16 02:45:14;;;;;;;19.63;9.30;;;8.50;99.90;;;;;;5098112;28;20477;-55
2022/03/16 02:47:41;;;;;;;30.70;10.83;;;8.50;99.90;;;;;;5098016;28;20441;-54
2022/03/16 02:50:09;;;;;;;15.60;9.80;;;8.40;99.90;;;;;;5098504;28;20448;-56
2022/03/16 02:52:35;;;;;;;21.57;10.90;;;8.40;99.90;;;;;;5098698;28;20450;-55
2022/03/16 02:55:02;;;;;;;16.03;8.60;;;8.40;99.90;;;;;;5098919;28;20507;-58
2022/03/16 02:57:31;;;;;;;18.60;9.47;;;8.30;99.90;;;;;;5098416;28;20515;-59
2022/03/16 02:59:57;;;;;;;27.93;10.80;;;8.30;99.90;;;;;;5098493;28;20438;-58
2022/03/16 03:02:24;;;;;;;18.27;9.47;;;8.30;99.90;;;;;;5098580;28;20446;-55
2022/03/16 03:04:51;;;;;;;20.87;9.17;;;8.30;99.90;;;;;;5098330;28;20427;-54
2022/03/16 03:07:17;;;;;;;24.20;10.13;;;8.30;99.90;;;;;;5098097;28;20442;-57
2022/03/16 03:09:44;;;;;;;16.43;10.53;;;8.30;99.90;;;;;;5098371;28;20504;-58
2022/03/16 03:12:11;;;;;;;21.60;8.37;;;8.30;99.90;;;;;;5097732;28;20454;-57
2022/03/16 03:14:39;;;;;;;15.30;10.03;;;8.30;99.90;;;;;;5097638;28;20541;-59
2022/03/16 03:17:06;;;;;;;17.13;10.33;;;8.20;99.90;;;;;;5098229;28;20513;-58
2022/03/16 03:19:33;;;;;;;18.37;9.43;;;8.20;99.90;;;;;;5097099;28;20438;-53
2022/03/16 03:22:00;;;;;;;17.27;10.27;;;8.10;99.90;;;;;;5097945;28;20471;-62
2022/03/16 03:24:26;;;;;;;17.00;10.07;;;8.10;99.90;;;;;;5098230;28;20426;-67
2022/03/16 03:26:53;;;;;;;21.23;11.60;;;8.10;99.90;;;;;;5097674;28;20446;-58
2022/03/16 03:29:20;;;;;;;16.83;10.27;;;8.10;99.90;;;;;;5098362;28;20441;-60
2022/03/16 03:31:48;;;;;;;25.90;10.10;;;8.10;99.90;;;;;;5097601;28;20443;-59
2022/03/16 03:34:15;;;;;;;20.57;10.50;;;8.00;99.90;;;;;;5097862;28;20461;-54
2022/03/16 03:36:42;;;;;;;19.47;10.10;;;8.00;99.90;;;;;;5098037;28;20512;-57
2022/03/16 03:39:09;;;;;;;23.03;9.37;;;8.00;99.90;;;;;;5098431;28;20492;-55
2022/03/16 03:41:36;;;;;;;22.07;11.07;;;7.90;99.90;;;;;;5097517;28;20410;-58
2022/03/16 03:44:03;;;;;;;21.23;9.73;;;7.90;99.90;;;;;;5097534;28;20422;-55
2022/03/16 03:46:30;;;;;;;18.50;10.47;;;7.90;99.90;;;;;;5097255;28;20532;-55
2022/03/16 03:48:58;;;;;;;20.40;8.90;;;8.00;99.90;;;;;;5096589;28;20446;-58
2022/03/16 03:51:24;;;;;;;13.03;8.20;;;8.00;99.90;;;;;;5097396;28;20468;-54
2022/03/16 03:53:51;;;;;;;19.23;9.37;;;8.00;99.90;;;;;;5096880;28;20443;-58
2022/03/16 03:56:18;;;;;;;21.40;10.27;;;7.90;99.90;;;;;;5096998;28;20431;-54
2022/03/16 03:58:45;;;;;;;23.10;9.43;;;7.90;99.90;;;;;;5096782;28;20524;-56
2022/03/16 04:01:11;;;;;;;19.80;10.17;;;7.90;99.90;;;;;;5096383;28;20438;-58
2022/03/16 04:03:38;;;;;;;22.60;10.83;;;7.90;99.90;;;;;;5096551;28;20476;-56
2022/03/16 04:06:07;;;;;;;17.33;10.13;;;7.80;99.90;;;;;;5096862;28;20461;-58
2022/03/16 04:08:34;;;;;;;18.60;9.43;;;7.80;99.90;;;;;;5096854;28;20450;-57
2022/03/16 04:11:01;;;;;;;18.97;9.87;;;7.70;99.90;;;;;;5096987;28;20426;-60
2022/03/16 04:13:27;;;;;;;20.07;10.33;;;7.70;99.90;;;;;;5096375;28;20430;-56
2022/03/16 04:15:54;;;;;;;19.77;10.77;;;7.70;99.90;;;;;;5096385;28;20484;-55
2022/03/16 04:18:21;;;;;;;18.60;11.67;;;7.70;99.90;;;;;;5096012;28;20477;-56
2022/03/16 04:20:47;;;;;;;16.73;9.93;;;7.70;99.90;;;;;;5096340;28;20472;-56
2022/03/16 04:23:15;;;;;;;21.67;9.70;;;7.70;99.90;;;;;;5096332;28;20434;-58
2022/03/16 04:25:42;;;;;;;18.17;9.23;;;7.60;99.90;;;;;;5095631;28;20718;-56
2022/03/16 04:28:09;;;;;;;27.97;13.23;;;7.60;99.90;;;;;;5095970;28;20466;-57
2022/03/16 04:30:35;;;;;;;22.70;10.07;;;7.60;99.90;;;;;;5095881;28;20427;-57
2022/03/16 04:33:02;;;;;;;17.30;8.90;;;7.60;99.90;;;;;;5095535;28;20438;-56
2022/03/16 04:35:29;;;;;;;18.27;10.17;;;7.50;99.90;;;;;;5095871;28;20473;-58
2022/03/16 04:37:56;;;;;;;18.50;9.93;;;7.50;99.90;;;;;;5096048;28;20482;-61
2022/03/16 04:40:24;;;;;;;18.17;10.63;;;7.50;99.90;;;;;;5096150;28;20462;-57
2022/03/16 04:42:50;;;;;;;24.20;11.00;;;7.50;99.90;;;;;;5096555;28;20423;-58
2022/03/16 04:45:17;;;;;;;22.60;11.13;;;7.50;99.90;;;;;;5096250;28;20427;-53
2022/03/16 04:47:44;;;;;;;25.70;12.13;;;7.40;99.90;;;;;;5095924;28;20473;-57
2022/03/16 04:50:10;;;;;;;26.03;11.40;;;7.40;99.90;;;;;;5096238;28;21098;-59
2022/03/16 04:52:44;;;;;;;23.20;10.87;;;7.40;99.90;;;;;;5096054;28;20471;-57
2022/03/16 04:55:11;;;;;;;29.97;11.90;;;7.30;99.90;;;;;;5095334;28;20458;-54
2022/03/16 04:57:39;;;;;;;20.90;9.97;;;7.30;99.90;;;;;;5095484;28;20466;-56
2022/03/16 05:00:08;;;;;;;24.77;11.87;;;7.20;99.90;;;;;;5095620;28;20430;-56
2022/03/16 05:02:34;;;;;;;19.63;10.93;;;7.20;99.90;;;;;;5095480;28;20522;-56
2022/03/16 05:05:01;;;;;;;19.97;13.03;;;7.20;99.90;;;;;;5094177;28;20509;-48
2022/03/16 05:07:28;;;;;;;21.27;12.07;;;7.20;99.90;;;;;;5077508;28;20482;-58
2022/03/16 05:09:54;;;;;;;26.30;11.80;;;7.20;99.90;;;;;;5075177;28;20435;-56
2022/03/16 05:12:21;;;;;;;31.43;12.83;;;7.30;99.90;;;;;;5075128;28;20443;-55
2022/03/16 05:14:49;;;;;;;28.87;13.47;;;7.20;99.90;;;;;;5074875;28;20443;-54
2022/03/16 05:17:16;;;;;;;34.77;12.00;;;7.20;99.90;;;;;;5074576;28;20520;-58
2022/03/16 05:19:42;;;;;;;20.50;12.17;;;7.20;99.90;;;;;;5075070;28;20559;-54
2022/03/16 05:22:09;;;;;;;22.23;12.60;;;7.20;99.90;;;;;;5074958;28;20439;-55
2022/03/16 05:24:36;;;;;;;23.67;10.77;;;7.20;99.90;;;;;;5074905;28;20477;-57
2022/03/16 05:27:02;;;;;;;25.63;10.90;;;7.20;99.90;;;;;;5075108;28;20465;-53
2022/03/16 05:29:30;;;;;;;27.80;13.20;;;7.20;99.90;;;;;;5075683;28;20470;-40
2022/03/16 05:31:58;;;;;;;23.83;13.40;;;7.20;99.90;;;;;;5076284;28;20435;-42
2022/03/16 05:34:25;;;;;;;28.20;12.77;;;7.20;99.90;;;;;;5076258;28;20435;-41
2022/03/16 05:36:52;;;;;;;24.67;12.37;;;7.20;99.90;;;;;;5075586;28;20455;-43
2022/03/16 05:39:18;;;;;;;18.60;10.20;;;7.20;99.90;;;;;;5076025;28;20431;-42
2022/03/16 05:41:45;;;;;;;19.87;10.53;;;7.20;99.90;;;;;;5077721;28;20458;-44
2022/03/16 05:44:12;;;;;;;18.83;10.03;;;7.30;99.90;;;;;;5082799;28;20435;-44
2022/03/16 05:46:38;;;;;;;17.57;12.30;;;7.30;99.90;;;;;;5083293;28;20418;-42
2022/03/16 05:49:06;;;;;;;21.80;11.37;;;7.30;99.90;;;;;;5082750;28;20431;-50
2022/03/16 05:51:33;;;;;;;27.50;12.37;;;7.30;99.90;;;;;;5083285;28;20465;-48
2022/03/16 05:54:00;;;;;;;24.00;12.60;;;7.30;99.90;;;;;;5082908;28;20517;-48
2022/03/16 05:56:27;;;;;;;22.23;11.17;;;7.30;99.90;;;;;;5082996;28;20473;-39
2022/03/16 05:58:53;;;;;;;28.47;13.63;;;7.30;99.90;;;;;;5082532;28;20486;-44
2022/03/16 06:01:20;;;;;;;19.40;11.70;;;7.30;99.90;;;;;;5082931;28;20461;-38
2022/03/16 06:03:47;;;;;;;22.30;11.97;;;7.30;99.90;;;;;;5083010;28;20435;-42
2022/03/16 06:06:16;;;;;;;29.83;12.20;;;7.30;99.90;;;;;;5083143;28;20487;-38
2022/03/16 06:08:45;;;;;;;23.70;12.30;;;7.30;99.90;;;;;;5083354;28;20430;-46
2022/03/16 06:11:12;;;;;;;29.47;12.53;;;7.40;99.90;;;;;;5089143;28;20458;-39
2022/03/16 06:13:40;;;;;;;23.10;11.30;;;7.40;99.90;;;;;;5101775;28;20468;-42
2022/03/16 06:16:09;;;;;;;21.10;12.47;;;7.40;99.90;;;;;;5102465;28;20425;-39
2022/03/16 06:18:35;;;;;;;29.40;12.83;;;7.40;99.90;;;;;;5102304;28;20482;-49
2022/03/16 06:21:02;;;;;;;25.17;12.70;;;7.50;99.90;;;;;;5102546;28;20436;-41
2022/03/16 06:23:30;;;;;;;25.57;12.67;;;7.50;99.90;;;;;;5102516;28;20464;-44
2022/03/16 06:25:57;;;;;;;24.60;13.30;;;7.50;99.90;;;;;;5100788;28;20430;-41
2022/03/16 06:28:23;;;;;;;26.77;13.30;;;7.50;99.90;;;;;;5102945;28;20468;-42
2022/03/16 06:30:50;;;;;;;29.00;13.60;;;7.50;99.90;;;;;;5102545;28;20461;-43
2022/03/16 06:33:17;;;;;;;22.83;11.63;;;7.40;99.90;;;;;;5100139;28;20472;-39
2022/03/16 06:35:44;;;;;;;22.37;12.23;;;7.50;99.90;;;;;;5102232;28;20466;-42
2022/03/16 06:38:11;;;;;;;23.10;12.10;;;7.50;99.90;;;;;;5102807;28;20461;-39
2022/03/16 06:40:39;;;;;;;32.27;14.07;;;7.70;99.90;;;;;;5102065;28;20836;-40
2022/03/16 06:43:06;;;;;;;25.80;13.47;;;7.90;99.90;;;;;;5102368;28;20470;-42
2022/03/16 06:45:33;;;;;;;33.40;14.93;;;7.90;99.90;;;;;;5102645;28;20434;-39
2022/03/16 06:48:01;;;;;;;29.90;15.67;;;7.90;99.90;;;;;;5101689;28;20445;-39
2022/03/16 06:50:31;;;;;;;41.27;16.33;;;7.90;99.90;;;;;;5102288;28;20454;-42
2022/03/16 06:52:58;;;;;;;28.17;14.43;;;7.90;99.90;;;;;;5100393;28;20465;-42
2022/03/16 06:55:26;;;;;;;26.63;14.33;;;7.90;99.90;;;;;;5098862;28;20476;-41
2022/03/16 06:57:55;;;;;;;30.30;13.03;;;8.00;99.90;;;;;;5098397;28;20573;-41
2022/03/16 07:00:22;;;;;;;28.05;16.08;;;8.00;99.90;;;;;;5088768;28;20438;-57
2022/03/16 07:02:54;;;;;;;21.80;11.90;;;8.10;99.90;;;;;;5076485;28;20575;-60
2022/03/16 07:05:21;;;;;;;26.63;14.03;;;8.20;99.90;;;;;;5077177;28;20420;-56
2022/03/16 07:07:48;;;;;;;25.93;13.70;;;8.20;99.90;;;;;;5077398;28;20451;-54
2022/03/16 07:10:14;;;;;;;30.70;14.57;;;8.30;99.90;;;;;;5077624;28;20451;-58
2022/03/16 07:12:41;;;;;;;24.53;13.50;;;8.30;99.90;;;;;;5077579;28;20423;-59
2022/03/16 07:15:10;;;;;;;24.70;13.80;;;8.40;99.90;;;;;;5077115;28;20481;-59
2022/03/16 07:17:38;;;;;;;26.53;11.13;;;8.40;99.90;;;;;;5076883;28;20476;-54
2022/03/16 07:20:06;;;;;;;25.13;12.73;;;8.50;99.90;;;;;;5076751;28;20494;-56
2022/03/16 07:22:34;;;;;;;22.30;12.20;;;8.50;99.90;;;;;;5077426;28;20427;-56
2022/03/16 07:25:01;;;;;;;24.77;11.10;;;8.60;99.90;;;;;;5076977;28;20820;-58
2022/03/16 07:27:28;;;;;;;27.10;13.27;;;8.60;99.90;;;;;;5077526;28;20428;-58
2022/03/16 07:29:57;;;;;;;22.57;12.13;;;8.70;99.90;;;;;;5077254;28;20451;-56
2022/03/16 07:32:25;;;;;;;19.87;11.33;;;8.70;99.90;;;;;;5077515;28;20459;-51
2022/03/16 07:34:51;;;;;;;24.17;14.43;;;8.70;99.90;;;;;;5077147;28;20431;-55
2022/03/16 07:37:19;;;;;;;24.80;13.53;;;8.80;99.90;;;;;;5077068;28;20467;-56
2022/03/16 07:39:45;;;;;;;30.07;13.37;;;8.90;99.90;;;;;;5077516;28;20482;-55
2022/03/16 07:42:12;;;;;;;22.93;12.20;;;8.90;99.90;;;;;;5077125;28;20467;-53
2022/03/16 07:44:42;;;;;;;23.80;12.83;;;9.00;99.90;;;;;;5077041;28;20435;-58
2022/03/16 07:47:08;;;;;;;24.50;12.20;;;9.00;99.90;;;;;;5099592;22;20494;-63
2022/03/16 07:49:37;;;;;;;23.57;11.80;;;9.10;99.90;;;;;;5074262;28;20458;-61
2022/03/16 07:52:04;;;;;;;30.97;12.70;;;9.10;99.90;;;;;;5074302;28;20530;-59
2022/03/16 07:54:30;;;;;;;19.80;12.30;;;9.20;99.90;;;;;;5073774;28;20447;-54
2022/03/16 07:56:57;;;;;;;25.97;12.87;;;9.20;99.90;;;;;;5073461;28;20438;-63
2022/03/16 07:59:24;;;;;;;23.20;13.93;;;9.20;99.90;;;;;;5073577;28;20498;-59
2022/03/16 08:01:51;;;;;;;68.00;29.90;;;9.20;99.90;;;;;;5074284;28;20439;-60
2022/03/16 08:04:17;;;;;;;49.57;20.27;;;9.20;99.90;;;;;;5073665;28;20463;-59
2022/03/16 08:06:46;;;;;;;29.93;15.33;;;9.10;99.90;;;;;;5074720;28;20427;-63
2022/03/16 08:09:12;;;;;;;35.07;14.00;;;9.00;99.90;;;;;;5074355;28;20471;-56
2022/03/16 08:11:40;;;;;;;25.63;11.30;;;8.90;99.90;;;;;;5074818;28;20463;-58
2022/03/16 08:14:07;;;;;;;23.67;13.33;;;8.70;99.90;;;;;;5074250;28;20440;-61
2022/03/16 08:16:34;;;;;;;23.90;13.47;;;8.70;99.90;;;;;;5074647;28;20779;-61
2022/03/16 08:19:01;;;;;;;17.87;11.47;;;8.60;99.90;;;;;;5073737;28;20482;-61
2022/03/16 08:21:29;;;;;;;21.97;11.93;;;8.70;99.90;;;;;;5073416;28;20463;-60
2022/03/16 08:23:57;;;;;;;25.80;12.97;;;8.70;99.90;;;;;;5073842;28;20469;-62
2022/03/16 08:26:24;;;;;;;18.90;9.50;;;8.80;99.90;;;;;;5074275;28;20508;-63
2022/03/16 08:28:52;;;;;;;24.50;11.27;;;8.70;99.90;;;;;;5073538;28;20432;-61
2022/03/16 08:31:19;;;;;;;16.07;10.43;;;8.70;99.90;;;;;;5073696;28;20439;-58
2022/03/16 08:33:48;;;;;;;18.53;10.77;;;8.80;99.90;;;;;;5073993;28;20436;-55
2022/03/16 08:36:15;;;;;;;14.90;10.23;;;8.80;99.90;;;;;;5074341;28;20459;-58
2022/03/16 08:38:41;;;;;;;16.80;9.53;;;8.90;99.90;;;;;;5074256;28;20469;-62
2022/03/16 08:41:10;;;;;;;19.70;8.70;;;9.30;99.90;;;;;;5072301;28;20456;-61
2022/03/16 08:43:37;;;;;;;19.37;9.50;;;10.40;99.90;;;;;;5067829;28;20463;-61
2022/03/16 08:46:05;;;;;;;17.50;10.70;;;11.70;99.90;;;;;;5065499;28;20527;-60
2022/03/16 08:48:32;;;;;;;17.33;8.37;;;12.80;99.90;;;;;;5064049;28;20465;-59
2022/03/16 08:50:59;;;;;;;14.40;9.97;;;13.90;99.90;;;;;;5064244;28;20448;-61
2022/03/16 08:53:26;;;;;;;16.23;9.30;;;14.40;99.90;;;;;;5065084;28;20450;-63
2022/03/16 08:55:55;;;;;;;14.00;9.57;;;14.30;99.90;;;;;;5067495;28;20477;-60
2022/03/16 08:58:23;;;;;;;26.27;10.70;;;13.90;99.90;;;;;;5075340;28;20509;-58
2022/03/16 09:00:50;;;;;;;27.40;12.40;;;13.50;99.90;;;;;;5075326;28;20501;-56
2022/03/16 09:03:16;;;;;;;24.43;12.40;;;13.20;99.90;;;;;;5075259;28;20453;-56
2022/03/16 09:05:43;;;;;;;26.73;12.87;;;12.90;99.90;;;;;;5075195;28;20832;-56
2022/03/16 09:08:10;;;;;;;30.60;12.90;;;12.50;99.90;;;;;;5074778;28;20420;-56
2022/03/16 09:10:38;;;;;;;22.60;12.00;;;12.20;99.90;;;;;;5074633;28;20503;-55
2022/03/16 09:13:07;;;;;;;20.53;11.23;;;11.90;99.90;;;;;;5074674;28;20443;-58
2022/03/16 09:15:35;;;;;;;22.27;10.53;;;11.50;99.90;;;;;;5074403;28;20451;-57
2022/03/16 09:18:01;;;;;;;26.93;11.77;;;11.40;99.90;;;;;;5073855;28;20471;-55
2022/03/16 09:20:28;;;;;;;19.37;11.10;;;11.10;99.90;;;;;;5074438;28;20538;-62
2022/03/16 09:22:55;;;;;;;22.40;10.97;;;10.80;99.90;;;;;;5074709;28;20494;-57
2022/03/16 09:25:25;;;;;;;38.03;12.63;;;10.70;99.90;;;;;;5074995;28;20459;-57
2022/03/16 09:27:52;;;;;;;28.47;12.93;;;10.50;99.90;;;;;;5076085;28;20443;-56
2022/03/16 09:30:19;;;;;;;22.60;11.30;;;10.40;99.90;;;;;;5076024;28;20439;-60
2022/03/16 09:32:47;;;;;;;23.80;12.17;;;10.40;99.90;;;;;;5075870;28;20439;-56
2022/03/16 09:35:14;;;;;;;25.17;10.67;;;10.40;99.90;;;;;;5075137;28;20455;-59
2022/03/16 09:37:41;;;;;;;30.60;13.63;;;10.40;99.90;;;;;;5075084;28;20462;-59
2022/03/16 09:40:09;;;;;;;23.87;12.97;;;10.30;99.90;;;;;;5074782;28;20512;-57
2022/03/16 09:42:38;;;;;;;27.83;12.90;;;10.40;99.90;;;;;;5074803;28;20447;-56
2022/03/16 09:45:10;;;;;;;29.77;12.57;;;10.50;99.90;;;;;;5074420;28;20501;-57
2022/03/16 09:47:37;;;;;;;20.53;11.67;;;10.50;99.90;;;;;;5073931;28;20466;-55
2022/03/16 09:50:06;;;;;;;22.93;10.90;;;10.70;99.90;;;;;;5075126;28;20450;-57
2022/03/16 09:52:33;;;;;;;20.57;11.47;;;10.90;99.90;;;;;;5075219;28;20419;-59
2022/03/16 09:55:01;;;;;;;22.30;11.83;;;11.40;99.90;;;;;;5074783;28;20526;-64
2022/03/16 09:57:28;;;;;;;21.63;11.90;;;12.00;99.90;;;;;;5074384;28;20466;-60
2022/03/16 09:59:55;;;;;;;31.40;11.30;;;12.50;99.90;;;;;;5074207;28;20471;-56
2022/03/16 10:02:22;;;;;;;22.87;11.70;;;13.10;99.90;;;;;;5074833;28;20566;-56
2022/03/16 10:04:49;;;;;;;20.00;10.33;;;13.50;99.90;;;;;;5074791;28;20445;-56
2022/03/16 10:07:17;;;;;;;23.03;10.70;;;13.60;99.90;;;;;;5076081;28;20467;-59
2022/03/16 10:15:18;;;;;;;23.00;11.27;;;13.20;99.90;;;;;;5074940;28;20433;-60
2022/03/16 10:17:52;;;;;;;23.70;10.53;;;13.90;99.90;;;;;;5073932;28;20527;-51
2022/03/16 10:20:26;;;;;;;20.57;10.80;;;14.70;99.90;;;;;;5073970;28;20470;-57
2022/03/16 10:23:06;;;;;;;20.07;10.93;;;15.10;99.90;;;;;;5074118;28;20920;-57
2022/03/16 10:25:36;;;;;;;20.23;9.17;;;14.90;99.90;;;;;;5073830;28;20490;-59
2022/03/16 10:28:11;;;;;;;16.60;10.00;;;14.50;99.90;;;;;;5075127;28;20431;-60
2022/03/16 10:30:55;;;;;;;18.33;9.30;;;14.30;99.90;;;;;;5078026;28;20539;-55
2022/03/16 10:33:22;;;;;;;23.20;10.20;;;14.30;99.90;;;;;;5079563;28;20426;-56
2022/03/16 10:36:04;;;;;;;23.70;10.77;;;14.40;99.90;;;;;;5079219;28;20467;-59
2022/03/16 10:38:37;;;;;;;20.60;10.47;;;14.20;99.90;;;;;;5077907;28;20427;-61
2022/03/16 10:46:34;;;;;;;24.70;11.67;;;14.10;99.90;;;;;;5077917;28;20459;-56
2022/03/16 10:46:48;;;;;;;26.93;10.93;;;13.50;99.90;;;;;;5076896;28;20529;-52
2022/03/16 10:49:16;;;;;;;19.67;11.00;;;13.30;99.90;;;;;;5077618;28;20423;-58
2022/03/16 10:51:45;;;;;;;22.73;11.53;;;13.20;99.90;;;;;;5077345;28;20479;-61
2022/03/16 10:54:16;;;;;;;22.63;10.80;;;13.40;99.90;;;;;;5077238;28;20560;-58
2022/03/16 10:56:45;;;;;;;16.83;9.30;;;13.60;99.90;;;;;;5077411;28;20471;-48
2022/03/16 10:59:15;;;;;;;23.03;11.50;;;13.50;99.90;;;;;;5077732;28;20509;-58
2022/03/16 11:01:42;;;;;;;26.40;12.20;;;13.40;99.90;;;;;;5076833;28;20432;-50
2022/03/16 11:04:12;;;;;;;27.90;14.00;;;13.50;99.90;;;;;;5077019;28;20467;-53
2022/03/16 11:06:40;;;;;;;27.23;14.80;;;13.60;99.90;;;;;;5078000;28;20443;-56
2022/03/16 11:09:09;;;;;;;24.40;11.50;;;13.60;99.90;;;;;;5077625;28;20459;-54
2022/03/16 11:14:24;;;;;;;19.90;10.50;;;13.50;99.90;;;;;;5076694;28;20454;-59
2022/03/16 11:16:54;;;;;;;14.07;9.47;;;13.60;99.90;;;;;;5078465;28;20444;-61
2022/03/16 11:19:22;;;;;;;16.70;9.27;;;13.60;99.90;;;;;;5077276;28;20510;-57
2022/03/16 11:21:59;;;;;;;14.33;9.17;;;13.80;99.90;;;;;;5077539;28;20420;-58
2022/03/16 11:24:32;;;;;;;11.90;7.23;;;14.00;99.90;;;;;;5077178;28;20423;-54
2022/03/16 11:27:17;;;;;;;13.27;7.80;;;14.10;99.90;;;;;;5077104;28;20489;-57
2022/03/16 11:29:53;;;;;;;14.13;8.00;;;14.00;99.90;;;;;;5078263;28;20436;-57
2022/03/16 11:32:21;;;;;;;15.73;9.47;;;13.80;99.90;;;;;;5077148;28;20435;-58
2022/03/16 11:34:50;;;;;;;21.40;12.30;;;13.70;99.90;;;;;;5076956;28;20439;-54
2022/03/16 11:37:18;;;;;;;19.77;10.77;;;13.60;99.90;;;;;;5077314;28;20497;-49
2022/03/16 11:39:47;;;;;;;20.77;10.30;;;13.50;99.90;;;;;;5076640;28;20507;-58
2022/03/16 11:42:19;;;;;;;16.67;10.00;;;13.40;99.90;;;;;;5077131;28;20459;-56
2022/03/16 11:44:46;;;;;;;17.30;8.63;;;13.20;99.90;;;;;;5076848;28;20499;-59
2022/03/16 11:47:35;;;;;;;14.33;8.70;;;13.00;99.90;;;;;;5076912;28;20454;-58
2022/03/16 11:50:19;;;;;;;13.33;8.80;;;12.90;99.90;;;;;;5076878;28;20455;-59
2022/03/16 11:53:05;;;;;;;13.70;7.50;;;12.80;99.90;;;;;;5076514;28;20434;-58
2022/03/16 11:55:46;;;;;;;12.23;7.10;;;12.70;99.90;;;;;;5076518;28;20419;-55
2022/03/16 11:58:25;;;;;;;18.17;9.53;;;12.70;99.90;;;;;;5076477;28;20436;-57
2022/03/16 12:01:08;;;;;;;13.53;8.30;;;12.70;99.90;;;;;;5076225;28;20559;-57
2022/03/16 12:03:43;;;;;;;19.37;9.60;;;12.80;99.90;;;;;;5076708;28;20437;-59
2022/03/16 12:06:10;;;;;;;16.17;9.70;;;12.70;99.90;;;;;;5077990;28;20431;-61
2022/03/16 12:08:51;;;;;;;15.30;9.60;;;12.70;99.90;;;;;;5077480;28;20435;-63
2022/03/16 12:14:07;;;;;;;16.90;8.70;;;12.70;99.90;;;;;;5075481;28;20402;-58
2022/03/16 12:16:41;;;;;;;15.37;8.57;;;12.80;99.90;;;;;;5075808;28;20471;-60
2022/03/16 12:19:27;;;;;;;11.80;8.00;;;12.80;99.90;;;;;;5075588;28;20483;-59
2022/03/16 12:21:57;;;;;;;15.40;8.57;;;12.80;99.90;;;;;;5075458;28;20467;-57
2022/03/16 12:30:10;;;;;;;18.10;10.07;;;13.00;99.90;;;;;;5077382;28;20427;-57
2022/03/16 12:32:37;;;;;;;17.90;8.90;;;12.90;99.90;;;;;;5076992;28;20466;-61
2022/03/16 12:35:05;;;;;;;15.60;9.70;;;13.00;99.90;;;;;;5075707;28;20890;-63
2022/03/16 12:37:33;;;;;;;15.50;9.40;;;13.10;99.90;;;;;;5075700;28;20454;-56
2022/03/16 12:40:09;;;;;;;16.30;9.47;;;13.20;99.90;;;;;;5075553;28;20455;-61
2022/03/16 12:42:35;;;;;;;18.77;9.97;;;13.10;99.90;;;;;;5075775;28;20456;-61
2022/03/16 12:45:10;;;;;;;15.30;9.33;;;13.10;99.90;;;;;;5075680;28;20515;-63
2022/03/16 12:47:42;;;;;;;16.43;9.60;;;13.10;99.90;;;;;;5075401;28;20207;-54
2022/03/16 12:50:13;;;;;;;16.43;9.60;;;13.10;99.90;;;;;;5075723;28;20469;-58
2022/03/16 12:52:49;;;;;;;15.23;9.87;;;13.20;99.90;;;;;;5074798;28;20474;-58
2022/03/16 12:55:18;;;;;;;16.97;9.30;;;13.30;99.90;;;;;;5075986;28;20463;-57
2022/03/16 12:57:52;;;;;;;30.20;11.67;;;13.40;99.90;;;;;;5076185;28;20451;-58
2022/03/16 13:00:21;;;;;;;19.47;10.83;;;13.50;99.90;;;;;;5075989;28;20538;-56